sensor_id;sensor_type;location;lat;lon;timestamp;pressure;altitude;pressure_sealevel;temperature;humidity
75414;BME280;64758;52.122;5.404;2024-01-30T00:00:44;102810.63;;;6.94;100.00
75414;BME280;64758;52.122;5.404;2024-01-30T00:03:11;102809.66;;;6.95;100.00
75414;BME280;64758;52.122;5.404;2024-01-30T00:05:38;102815.09;;;6.93;100.00
75414;BME280;64758;52.122;5.404;2024-01-30T00:08:05;102813.41;;;6.92;100.00
75414;BME280;64758;52.122;5.404;2024-01-30T00:10:32;102824.91;;;6.91;100.00
75414;BME280;64758;52.122;5.404;2024-01-30T00:12:58;102815.19;;;6.92;100.00
75414;BME280;64758;52.122;5.404;2024-01-30T00:15:25;102814.22;;;6.93;100.00
75414;BME280;64758;52.122;5.404;2024-01-30T00:17:51;102812.31;;;6.95;100.00
75414;BME280;64758;52.122;5.404;2024-01-30T00:20:20;102815.91;;;6.94;100.00
75414;BME280;64758;52.122;5.404;2024-01-30T00:22:47;102807.25;;;6.92;100.00
75414;BME280;64758;52.122;5.404;2024-01-30T00:25:14;102811.72;;;6.91;100.00
75414;BME280;64758;52.122;5.404;2024-01-30T00:27:41;102823.09;;;6.92;100.00
75414;BME280;64758;52.122;5.404;2024-01-30T00:30:08;102809.53;;;6.85;100.00
75414;BME280;64758;52.122;5.404;2024-01-30T00:32:35;102816.72;;;6.83;100.00
75414;BME280;64758;52.122;5.404;2024-01-30T00:35:02;102815.25;;;6.79;100.00
75414;BME280;64758;52.122;5.404;2024-01-30T00:37:28;102810.72;;;6.81;100.00
75414;BME280;64758;52.122;5.404;2024-01-30T00:39:55;102814.19;;;6.82;100.00
75414;BME280;64758;52.122;5.404;2024-01-30T00:42:22;102796.06;;;6.77;100.00
75414;BME280;64758;52.122;5.404;2024-01-30T00:44:50;102809.47;;;6.74;100.00
75414;BME280;64758;52.122;5.404;2024-01-30T00:47:17;102801.88;;;6.70;100.00
75414;BME280;64758;52.122;5.404;2024-01-30T00:49:43;102804.97;;;6.64;100.00
75414;BME280;64758;52.122;5.404;2024-01-30T00:52:10;102804.25;;;6.62;100.00
75414;BME280;64758;52.122;5.404;2024-01-30T00:54:37;102806.38;;;6.57;100.00
75414;BME280;64758;52.122;5.404;2024-01-30T00:57:04;102811.66;;;6.57;100.00
75414;BME280;64758;52.122;5.404;2024-01-30T00:59:30;102804.69;;;6.56;100.00
75414;BME280;64758;52.122;5.404;2024-01-30T01:01:57;102806.81;;;6.51;100.00
75414;BME280;64758;52.122;5.404;2024-01-30T01:04:24;102800.31;;;6.44;100.00
75414;BME280;64758;52.122;5.404;2024-01-30T01:06:50;102794.03;;;6.34;100.00
75414;BME280;64758;52.122;5.404;2024-01-30T01:09:17;102802.63;;;6.25;100.00
75414;BME280;64758;52.122;5.404;2024-01-30T01:11:43;102799.47;;;6.20;100.00
75414;BME280;64758;52.122;5.404;2024-01-30T01:14:10;102796.53;;;6.12;100.00
75414;BME280;64758;52.122;5.404;2024-01-30T01:16:36;102802.78;;;6.11;100.00
75414;BME280;64758;52.122;5.404;2024-01-30T01:19:03;102795.81;;;6.10;100.00
75414;BME280;64758;52.122;5.404;2024-01-30T01:21:31;102792.66;;;6.05;100.00
75414;BME280;64758;52.122;5.404;2024-01-30T01:23:57;102787.16;;;6.08;100.00
75414;BME280;64758;52.122;5.404;2024-01-30T01:26:24;102775.16;;;6.04;100.00
75414;BME280;64758;52.122;5.404;2024-01-30T01:28:50;102763.97;;;6.01;100.00
75414;BME280;64758;52.122;5.404;2024-01-30T01:31:17;102765.97;;;5.97;100.00
75414;BME280;64758;52.122;5.404;2024-01-30T01:33:44;102769.34;;;5.99;100.00
75414;BME280;64758;52.122;5.404;2024-01-30T01:36:13;102763.22;;;5.99;100.00
75414;BME280;64758;52.122;5.404;2024-01-30T01:38:40;102772.72;;;6.01;100.00
75414;BME280;64758;52.122;5.404;2024-01-30T01:41:06;102767.00;;;6.07;100.00
75414;BME280;64758;52.122;5.404;2024-01-30T01:43:33;102772.91;;;6.11;100.00
75414;BME280;64758;52.122;5.404;2024-01-30T01:45:59;102772.69;;;6.14;100.00
75414;BME280;64758;52.122;5.404;2024-01-30T01:48:26;102772.59;;;6.15;100.00
75414;BME280;64758;52.122;5.404;2024-01-30T01:50:53;102773.75;;;6.11;100.00
75414;BME280;64758;52.122;5.404;2024-01-30T01:53:20;102773.25;;;6.06;100.00
75414;BME280;64758;52.122;5.404;2024-01-30T01:55:47;102778.75;;;6.03;100.00
75414;BME280;64758;52.122;5.404;2024-01-30T01:58:14;102769.97;;;6.03;100.00
75414;BME280;64758;52.122;5.404;2024-01-30T02:00:41;102768.50;;;5.99;100.00
75414;BME280;64758;52.122;5.404;2024-01-30T02:03:10;102775.06;;;5.93;100.00
75414;BME280;64758;52.122;5.404;2024-01-30T02:05:38;102773.91;;;5.85;100.00
75414;BME280;64758;52.122;5.404;2024-01-30T02:08:06;102764.94;;;5.75;100.00
75414;BME280;64758;52.122;5.404;2024-01-30T02:10:33;102764.19;;;5.73;100.00
75414;BME280;64758;52.122;5.404;2024-01-30T02:13:00;102766.22;;;5.69;100.00
75414;BME280;64758;52.122;5.404;2024-01-30T02:15:27;102761.59;;;5.60;100.00
75414;BME280;64758;52.122;5.404;2024-01-30T02:17:55;102764.13;;;5.49;100.00
75414;BME280;64758;52.122;5.404;2024-01-30T02:20:23;102767.19;;;5.43;100.00
75414;BME280;64758;52.122;5.404;2024-01-30T02:22:53;102760.00;;;5.33;100.00
75414;BME280;64758;52.122;5.404;2024-01-30T02:25:20;102765.19;;;5.34;100.00
75414;BME280;64758;52.122;5.404;2024-01-30T02:27:47;102765.94;;;5.36;100.00
75414;BME280;64758;52.122;5.404;2024-01-30T02:30:13;102773.50;;;5.41;100.00
75414;BME280;64758;52.122;5.404;2024-01-30T02:32:40;102779.81;;;5.51;100.00
75414;BME280;64758;52.122;5.404;2024-01-30T02:35:06;102777.50;;;5.59;100.00
75414;BME280;64758;52.122;5.404;2024-01-30T02:37:33;102771.19;;;5.61;100.00
75414;BME280;64758;52.122;5.404;2024-01-30T02:39:59;102768.22;;;5.66;100.00
75414;BME280;64758;52.122;5.404;2024-01-30T02:42:26;102768.84;;;5.69;100.00
75414;BME280;64758;52.122;5.404;2024-01-30T02:44:53;102770.53;;;5.70;100.00
75414;BME280;64758;52.122;5.404;2024-01-30T02:47:19;102762.31;;;5.62;100.00
75414;BME280;64758;52.122;5.404;2024-01-30T02:49:45;102763.50;;;5.58;100.00
75414;BME280;64758;52.122;5.404;2024-01-30T02:52:12;102752.50;;;5.52;100.00
75414;BME280;64758;52.122;5.404;2024-01-30T02:54:39;102748.41;;;5.48;100.00
75414;BME280;64758;52.122;5.404;2024-01-30T02:57:05;102755.19;;;5.39;100.00
75414;BME280;64758;52.122;5.404;2024-01-30T02:59:32;102751.59;;;5.40;100.00
75414;BME280;64758;52.122;5.404;2024-01-30T03:02:02;102749.56;;;5.44;100.00
75414;BME280;64758;52.122;5.404;2024-01-30T03:04:28;102745.47;;;5.52;100.00
75414;BME280;64758;52.122;5.404;2024-01-30T03:06:56;102743.75;;;5.64;100.00
75414;BME280;64758;52.122;5.404;2024-01-30T03:09:23;102739.53;;;5.74;100.00
75414;BME280;64758;52.122;5.404;2024-01-30T03:11:49;102745.03;;;5.83;100.00
75414;BME280;64758;52.122;5.404;2024-01-30T03:14:16;102734.78;;;5.91;100.00
75414;BME280;64758;52.122;5.404;2024-01-30T03:16:43;102734.22;;;5.99;100.00
75414;BME280;64758;52.122;5.404;2024-01-30T03:19:09;102725.97;;;6.03;100.00
75414;BME280;64758;52.122;5.404;2024-01-30T03:21:36;102719.75;;;6.04;100.00
75414;BME280;64758;52.122;5.404;2024-01-30T03:24:03;102721.94;;;6.10;100.00
75414;BME280;64758;52.122;5.404;2024-01-30T03:26:29;102712.88;;;6.14;100.00
75414;BME280;64758;52.122;5.404;2024-01-30T03:28:56;102733.38;;;6.22;100.00
75414;BME280;64758;52.122;5.404;2024-01-30T03:31:23;102722.84;;;6.22;100.00
75414;BME280;64758;52.122;5.404;2024-01-30T03:33:49;102720.84;;;6.25;100.00
75414;BME280;64758;52.122;5.404;2024-01-30T03:36:16;102722.53;;;6.26;100.00
75414;BME280;64758;52.122;5.404;2024-01-30T03:38:43;102724.06;;;6.28;100.00
75414;BME280;64758;52.122;5.404;2024-01-30T03:41:09;102720.47;;;6.29;100.00
75414;BME280;64758;52.122;5.404;2024-01-30T03:43:36;102707.28;;;6.29;100.00
75414;BME280;64758;52.122;5.404;2024-01-30T03:46:03;102717.63;;;6.32;100.00
75414;BME280;64758;52.122;5.404;2024-01-30T03:48:30;102706.97;;;6.34;100.00
75414;BME280;64758;52.122;5.404;2024-01-30T03:50:56;102703.81;;;6.29;100.00
75414;BME280;64758;52.122;5.404;2024-01-30T03:53:23;102710.56;;;6.33;100.00
75414;BME280;64758;52.122;5.404;2024-01-30T03:55:50;102705.06;;;6.36;100.00
75414;BME280;64758;52.122;5.404;2024-01-30T03:58:16;102694.25;;;6.39;100.00
75414;BME280;64758;52.122;5.404;2024-01-30T04:00:43;102700.03;;;6.44;100.00
75414;BME280;64758;52.122;5.404;2024-01-30T04:03:11;102701.69;;;6.45;100.00
75414;BME280;64758;52.122;5.404;2024-01-30T04:05:37;102713.63;;;6.50;100.00
75414;BME280;64758;52.122;5.404;2024-01-30T04:08:04;102713.38;;;6.53;100.00
75414;BME280;64758;52.122;5.404;2024-01-30T04:10:31;102714.72;;;6.59;100.00
75414;BME280;64758;52.122;5.404;2024-01-30T04:12:57;102712.56;;;6.64;100.00
75414;BME280;64758;52.122;5.404;2024-01-30T04:15:24;102708.97;;;6.65;100.00
75414;BME280;64758;52.122;5.404;2024-01-30T04:17:51;102721.00;;;6.69;100.00
75414;BME280;64758;52.122;5.404;2024-01-30T04:20:17;102722.66;;;6.70;100.00
75414;BME280;64758;52.122;5.404;2024-01-30T04:22:47;102713.78;;;6.71;100.00
75414;BME280;64758;52.122;5.404;2024-01-30T04:25:14;102718.13;;;6.72;100.00
75414;BME280;64758;52.122;5.404;2024-01-30T04:27:41;102702.19;;;6.73;100.00
75414;BME280;64758;52.122;5.404;2024-01-30T04:30:08;102690.53;;;6.76;100.00
75414;BME280;64758;52.122;5.404;2024-01-30T04:32:35;102690.53;;;6.76;100.00
75414;BME280;64758;52.122;5.404;2024-01-30T04:35:03;102688.38;;;6.81;100.00
75414;BME280;64758;52.122;5.404;2024-01-30T04:37:35;102680.13;;;6.85;100.00
75414;BME280;64758;52.122;5.404;2024-01-30T04:40:01;102679.16;;;6.86;100.00
75414;BME280;64758;52.122;5.404;2024-01-30T04:42:29;102683.03;;;6.93;100.00
75414;BME280;64758;52.122;5.404;2024-01-30T04:44:56;102683.84;;;6.94;100.00
75414;BME280;64758;52.122;5.404;2024-01-30T04:47:22;102662.47;;;6.97;100.00
75414;BME280;64758;52.122;5.404;2024-01-30T04:49:51;102671.13;;;6.99;100.00
75414;BME280;64758;52.122;5.404;2024-01-30T04:52:17;102678.81;;;7.02;100.00
75414;BME280;64758;52.122;5.404;2024-01-30T04:54:44;102690.97;;;7.04;100.00
75414;BME280;64758;52.122;5.404;2024-01-30T04:57:11;102677.63;;;7.06;100.00
75414;BME280;64758;52.122;5.404;2024-01-30T04:59:38;102678.34;;;7.08;100.00
75414;BME280;64758;52.122;5.404;2024-01-30T05:02:05;102681.69;;;7.10;100.00
75414;BME280;64758;52.122;5.404;2024-01-30T05:04:32;102679.69;;;7.13;100.00
75414;BME280;64758;52.122;5.404;2024-01-30T05:06:58;102678.72;;;7.14;100.00
75414;BME280;64758;52.122;5.404;2024-01-30T05:09:25;102677.75;;;7.15;100.00
75414;BME280;64758;52.122;5.404;2024-01-30T05:11:52;102681.13;;;7.17;100.00
75414;BME280;64758;52.122;5.404;2024-01-30T05:14:18;102681.72;;;7.21;100.00
75414;BME280;64758;52.122;5.404;2024-01-30T05:16:45;102677.28;;;7.21;100.00
75414;BME280;64758;52.122;5.404;2024-01-30T05:19:13;102685.69;;;7.26;100.00
75414;BME280;64758;52.122;5.404;2024-01-30T05:21:41;102670.56;;;7.28;100.00
75414;BME280;64758;52.122;5.404;2024-01-30T05:24:08;102677.38;;;7.31;100.00
75414;BME280;64758;52.122;5.404;2024-01-30T05:26:36;102670.78;;;7.36;100.00
75414;BME280;64758;52.122;5.404;2024-01-30T05:29:03;102659.84;;;7.41;100.00
75414;BME280;64758;52.122;5.404;2024-01-30T05:31:31;102657.69;;;7.46;100.00
75414;BME280;64758;52.122;5.404;2024-01-30T05:33:57;102650.38;;;7.49;100.00
75414;BME280;64758;52.122;5.404;2024-01-30T05:36:24;102650.94;;;7.53;100.00
75414;BME280;64758;52.122;5.404;2024-01-30T05:38:51;102648.19;;;7.54;100.00
75414;BME280;64758;52.122;5.404;2024-01-30T05:41:17;102655.03;;;7.56;100.00
75414;BME280;64758;52.122;5.404;2024-01-30T05:43:44;102663.44;;;7.61;100.00
75414;BME280;64758;52.122;5.404;2024-01-30T05:46:10;102668.72;;;7.61;100.00
75414;BME280;64758;52.122;5.404;2024-01-30T05:48:37;102670.41;;;7.62;100.00
75414;BME280;64758;52.122;5.404;2024-01-30T05:51:04;102655.97;;;7.66;100.00
75414;BME280;64758;52.122;5.404;2024-01-30T05:53:31;102663.91;;;7.66;100.00
75414;BME280;64758;52.122;5.404;2024-01-30T05:55:57;102673.38;;;7.69;100.00
75414;BME280;64758;52.122;5.404;2024-01-30T05:58:24;102667.25;;;7.68;100.00
75414;BME280;64758;52.122;5.404;2024-01-30T06:00:51;102661.97;;;7.68;100.00
75414;BME280;64758;52.122;5.404;2024-01-30T06:03:17;102673.38;;;7.69;100.00
75414;BME280;64758;52.122;5.404;2024-01-30T06:05:44;102676.88;;;7.69;100.00
75414;BME280;64758;52.122;5.404;2024-01-30T06:08:10;102676.75;;;7.71;100.00
75414;BME280;64758;52.122;5.404;2024-01-30T06:10:37;102675.66;;;7.73;100.00
75414;BME280;64758;52.122;5.404;2024-01-30T06:13:03;102672.06;;;7.74;100.00
75414;BME280;64758;52.122;5.404;2024-01-30T06:15:30;102671.81;;;7.77;100.00
75414;BME280;64758;52.122;5.404;2024-01-30T06:17:58;102667.34;;;7.78;100.00
75414;BME280;64758;52.122;5.404;2024-01-30T06:20:25;102686.72;;;7.78;100.00
75414;BME280;64758;52.122;5.404;2024-01-30T06:22:52;102674.47;;;7.77;100.00
75414;BME280;64758;52.122;5.404;2024-01-30T06:25:18;102667.25;;;7.79;100.00
75414;BME280;64758;52.122;5.404;2024-01-30T06:27:45;102664.59;;;7.79;100.00
75414;BME280;64758;52.122;5.404;2024-01-30T06:30:12;102660.28;;;7.78;100.00
75414;BME280;64758;52.122;5.404;2024-01-30T06:32:38;102669.88;;;7.79;100.00
75414;BME280;64758;52.122;5.404;2024-01-30T06:35:05;102679.50;;;7.80;100.00
75414;BME280;64758;52.122;5.404;2024-01-30T06:37:32;102678.53;;;7.81;100.00
75414;BME280;64758;52.122;5.404;2024-01-30T06:39:59;102673.25;;;7.81;100.00
75414;BME280;64758;52.122;5.404;2024-01-30T06:42:25;102694.28;;;7.83;100.00
75414;BME280;64758;52.122;5.404;2024-01-30T06:44:52;102681.91;;;7.83;100.00
75414;BME280;64758;52.122;5.404;2024-01-30T06:47:18;102678.28;;;7.84;100.00
75414;BME280;64758;52.122;5.404;2024-01-30T06:49:45;102686.34;;;7.83;100.00
75414;BME280;64758;52.122;5.404;2024-01-30T06:52:12;102683.84;;;7.81;100.00
75414;BME280;64758;52.122;5.404;2024-01-30T06:54:38;102687.31;;;7.82;100.00
75414;BME280;64758;52.122;5.404;2024-01-30T06:57:06;102690.66;;;7.84;100.00
75414;BME280;64758;52.122;5.404;2024-01-30T06:59:38;102695.84;;;7.85;100.00
75414;BME280;64758;52.122;5.404;2024-01-30T07:02:11;102689.69;;;7.85;100.00
75414;BME280;64758;52.122;5.404;2024-01-30T07:04:37;102691.38;;;7.86;100.00
75414;BME280;64758;52.122;5.404;2024-01-30T07:07:08;102704.50;;;7.87;100.00
75414;BME280;64758;52.122;5.404;2024-01-30T07:09:39;102697.53;;;7.86;100.00
75414;BME280;64758;52.122;5.404;2024-01-30T07:12:06;102682.47;;;7.87;100.00
75414;BME280;64758;52.122;5.404;2024-01-30T07:14:33;102685.03;;;7.88;100.00
75414;BME280;64758;52.122;5.404;2024-01-30T07:16:59;102694.63;;;7.89;100.00
75414;BME280;64758;52.122;5.404;2024-01-30T07:19:26;102690.16;;;7.90;100.00
75414;BME280;64758;52.122;5.404;2024-01-30T07:21:53;102688.38;;;7.90;100.00
75414;BME280;64758;52.122;5.404;2024-01-30T07:24:19;102697.03;;;7.92;100.00
75414;BME280;64758;52.122;5.404;2024-01-30T07:26:46;102695.22;;;7.93;100.00
75414;BME280;64758;52.122;5.404;2024-01-30T07:29:12;102697.03;;;7.92;100.00
75414;BME280;64758;52.122;5.404;2024-01-30T07:31:39;102705.44;;;7.97;100.00
75414;BME280;64758;52.122;5.404;2024-01-30T07:34:06;102700.88;;;7.99;100.00
75414;BME280;64758;52.122;5.404;2024-01-30T07:36:33;102703.28;;;8.02;100.00
75414;BME280;64758;52.122;5.404;2024-01-30T07:39:00;102718.19;;;8.03;100.00
75414;BME280;64758;52.122;5.404;2024-01-30T07:41:26;102717.22;;;8.04;100.00
75414;BME280;64758;52.122;5.404;2024-01-30T07:43:53;102713.34;;;8.08;100.00
75414;BME280;64758;52.122;5.404;2024-01-30T07:46:20;102713.69;;;8.15;100.00
75414;BME280;64758;52.122;5.404;2024-01-30T07:48:46;102725.75;;;8.19;100.00
75414;BME280;64758;52.122;5.404;2024-01-30T07:51:13;102721.06;;;8.22;100.00
75414;BME280;64758;52.122;5.404;2024-01-30T07:53:40;102718.97;;;8.26;100.00
75414;BME280;64758;52.122;5.404;2024-01-30T07:56:08;102723.06;;;8.30;100.00
75414;BME280;64758;52.122;5.404;2024-01-30T07:58:34;102731.34;;;8.36;100.00
75414;BME280;64758;52.122;5.404;2024-01-30T08:01:01;102740.47;;;8.43;100.00
75414;BME280;64758;52.122;5.404;2024-01-30T08:03:28;102729.50;;;8.48;100.00
75414;BME280;64758;52.122;5.404;2024-01-30T08:05:55;102732.34;;;8.56;100.00
75414;BME280;64758;52.122;5.404;2024-01-30T08:08:21;102730.06;;;8.62;100.00
75414;BME280;64758;52.122;5.404;2024-01-30T08:10:48;102726.03;;;8.68;100.00
75414;BME280;64758;52.122;5.404;2024-01-30T08:13:16;102727.22;;;8.75;100.00
75414;BME280;64758;52.122;5.404;2024-01-30T08:15:43;102721.53;;;8.79;100.00
75414;BME280;64758;52.122;5.404;2024-01-30T08:18:09;102719.34;;;8.84;100.00
75414;BME280;64758;52.122;5.404;2024-01-30T08:20:36;102713.53;;;8.90;100.00
75414;BME280;64758;52.122;5.404;2024-01-30T08:23:03;102719.97;;;8.97;100.00
75414;BME280;64758;52.122;5.404;2024-01-30T08:25:29;102719.44;;;9.03;100.00
75414;BME280;64758;52.122;5.404;2024-01-30T08:27:56;102731.34;;;9.08;100.00
75414;BME280;64758;52.122;5.404;2024-01-30T08:30:24;102721.31;;;9.12;100.00
75414;BME280;64758;52.122;5.404;2024-01-30T08:32:51;102733.34;;;9.16;100.00
75414;BME280;64758;52.122;5.404;2024-01-30T08:35:18;102726.69;;;9.21;100.00
75414;BME280;64758;52.122;5.404;2024-01-30T08:37:45;102722.38;;;9.30;100.00
75414;BME280;64758;52.122;5.404;2024-01-30T08:40:12;102711.25;;;9.36;100.00
75414;BME280;64758;52.122;5.404;2024-01-30T08:42:39;102718.56;;;9.43;100.00
75414;BME280;64758;52.122;5.404;2024-01-30T08:45:05;102718.84;;;9.50;100.00
75414;BME280;64758;52.122;5.404;2024-01-30T08:47:33;102720.59;;;9.60;100.00
75414;BME280;64758;52.122;5.404;2024-01-30T08:49:59;102719.91;;;9.68;100.00
75414;BME280;64758;52.122;5.404;2024-01-30T08:52:26;102717.41;;;9.76;100.00
75414;BME280;64758;52.122;5.404;2024-01-30T08:54:53;102721.91;;;9.85;100.00
75414;BME280;64758;52.122;5.404;2024-01-30T08:57:20;102726.13;;;9.97;100.00
75414;BME280;64758;52.122;5.404;2024-01-30T08:59:47;102734.44;;;10.03;100.00
75414;BME280;64758;52.122;5.404;2024-01-30T09:02:14;102739.22;;;10.09;100.00
75414;BME280;64758;52.122;5.404;2024-01-30T09:04:42;102727.78;;;10.18;100.00
75414;BME280;64758;52.122;5.404;2024-01-30T09:07:09;102726.63;;;10.30;100.00
75414;BME280;64758;52.122;5.404;2024-01-30T09:09:40;102725.53;;;10.42;100.00
75414;BME280;64758;52.122;5.404;2024-01-30T09:12:08;102714.94;;;10.51;100.00
75414;BME280;64758;52.122;5.404;2024-01-30T09:14:36;102729.88;;;10.62;100.00
75414;BME280;64758;52.122;5.404;2024-01-30T09:17:03;102730.00;;;10.70;100.00
75414;BME280;64758;52.122;5.404;2024-01-30T09:19:30;102723.31;;;10.75;100.00
75414;BME280;64758;52.122;5.404;2024-01-30T09:21:57;102743.16;;;10.81;100.00
75414;BME280;64758;52.122;5.404;2024-01-30T09:24:24;102736.75;;;10.83;100.00
75414;BME280;64758;52.122;5.404;2024-01-30T09:26:51;102733.91;;;10.85;100.00
75414;BME280;64758;52.122;5.404;2024-01-30T09:29:18;102749.88;;;10.85;100.00
75414;BME280;64758;52.122;5.404;2024-01-30T09:31:45;102750.72;;;10.85;100.00
75414;BME280;64758;52.122;5.404;2024-01-30T09:34:12;102743.44;;;10.87;100.00
75414;BME280;64758;52.122;5.404;2024-01-30T09:36:39;102739.13;;;10.86;100.00
75414;BME280;64758;52.122;5.404;2024-01-30T09:39:06;102751.44;;;10.87;100.00
75414;BME280;64758;52.122;5.404;2024-01-30T09:41:42;102755.06;;;10.86;100.00
75414;BME280;64758;52.122;5.404;2024-01-30T09:44:11;102748.19;;;10.84;100.00
75414;BME280;64758;52.122;5.404;2024-01-30T09:46:38;102757.84;;;10.85;100.00
75414;BME280;64758;52.122;5.404;2024-01-30T09:49:06;102761.38;;;10.85;100.00
75414;BME280;64758;52.122;5.404;2024-01-30T09:51:34;102754.22;;;10.86;100.00
75414;BME280;64758;52.122;5.404;2024-01-30T09:54:02;102759.41;;;10.87;100.00
75414;BME280;64758;52.122;5.404;2024-01-30T09:56:29;102757.72;;;10.86;100.00
75414;BME280;64758;52.122;5.404;2024-01-30T09:58:56;102764.72;;;10.87;100.00
75414;BME280;64758;52.122;5.404;2024-01-30T10:01:23;102760.38;;;10.86;100.00
75414;BME280;64758;52.122;5.404;2024-01-30T10:03:50;102775.19;;;10.89;100.00
75414;BME280;64758;52.122;5.404;2024-01-30T10:06:19;102766.25;;;10.90;100.00
75414;BME280;64758;52.122;5.404;2024-01-30T10:08:48;102776.75;;;10.91;100.00
75414;BME280;64758;52.122;5.404;2024-01-30T10:11:15;102762.47;;;10.92;100.00
75414;BME280;64758;52.122;5.404;2024-01-30T10:13:41;102761.63;;;10.92;100.00
75414;BME280;64758;52.122;5.404;2024-01-30T10:16:08;102764.44;;;10.90;100.00
75414;BME280;64758;52.122;5.404;2024-01-30T10:18:35;102766.81;;;10.93;100.00
75414;BME280;64758;52.122;5.404;2024-01-30T10:21:01;102761.06;;;10.98;100.00
75414;BME280;64758;52.122;5.404;2024-01-30T10:23:29;102768.34;;;11.05;100.00
75414;BME280;64758;52.122;5.404;2024-01-30T10:26:03;102765.94;;;11.12;100.00
75414;BME280;64758;52.122;5.404;2024-01-30T10:28:30;102756.69;;;11.16;100.00
75414;BME280;64758;52.122;5.404;2024-01-30T10:31:00;102759.34;;;11.25;100.00
75414;BME280;64758;52.122;5.404;2024-01-30T10:33:32;102748.13;;;11.31;100.00
75414;BME280;64758;52.122;5.404;2024-01-30T10:36:04;102765.03;;;11.39;100.00
75414;BME280;64758;52.122;5.404;2024-01-30T10:38:33;102768.09;;;11.44;100.00
75414;BME280;64758;52.122;5.404;2024-01-30T10:41:00;102756.16;;;11.58;100.00
75414;BME280;64758;52.122;5.404;2024-01-30T10:43:31;102757.84;;;11.59;100.00
75414;BME280;64758;52.122;5.404;2024-01-30T10:46:09;102757.41;;;11.54;100.00
75414;BME280;64758;52.122;5.404;2024-01-30T10:48:42;102774.66;;;11.50;100.00
75414;BME280;64758;52.122;5.404;2024-01-30T10:51:11;102768.97;;;11.45;100.00
75414;BME280;64758;52.122;5.404;2024-01-30T10:53:39;102776.53;;;11.40;100.00
75414;BME280;64758;52.122;5.404;2024-01-30T10:56:06;102779.19;;;11.40;100.00
75414;BME280;64758;52.122;5.404;2024-01-30T10:58:34;102776.94;;;11.45;100.00
75414;BME280;64758;52.122;5.404;2024-01-30T11:01:01;102771.00;;;11.51;100.00
75414;BME280;64758;52.122;5.404;2024-01-30T11:03:29;102786.00;;;11.52;100.00
75414;BME280;64758;52.122;5.404;2024-01-30T11:05:59;102782.25;;;11.54;100.00
75414;BME280;64758;52.122;5.404;2024-01-30T11:08:26;102773.53;;;11.62;100.00
75414;BME280;64758;52.122;5.404;2024-01-30T11:10:58;102786.41;;;11.66;100.00
75414;BME280;64758;52.122;5.404;2024-01-30T11:13:31;102778.28;;;11.68;100.00
75414;BME280;64758;52.122;5.404;2024-01-30T11:16:02;102773.75;;;11.78;100.00
75414;BME280;64758;52.122;5.404;2024-01-30T11:18:30;102773.06;;;11.76;100.00
75414;BME280;64758;52.122;5.404;2024-01-30T11:20:59;102777.41;;;11.77;100.00
75414;BME280;64758;52.122;5.404;2024-01-30T11:23:28;102785.38;;;11.77;100.00
75414;BME280;64758;52.122;5.404;2024-01-30T11:25:56;102776.31;;;11.70;100.00
75414;BME280;64758;52.122;5.404;2024-01-30T11:28:22;102787.50;;;11.73;100.00
75414;BME280;64758;52.122;5.404;2024-01-30T11:30:50;102787.09;;;11.68;100.00
75414;BME280;64758;52.122;5.404;2024-01-30T11:33:29;102791.75;;;11.66;100.00
75414;BME280;64758;52.122;5.404;2024-01-30T11:36:01;102797.94;;;11.57;100.00
75414;BME280;64758;52.122;5.404;2024-01-30T11:38:28;102815.88;;;11.46;100.00
75414;BME280;64758;52.122;5.404;2024-01-30T11:40:55;102821.66;;;11.32;99.28
75414;BME280;64758;52.122;5.404;2024-01-30T11:43:25;102814.50;;;11.23;99.77
75414;BME280;64758;52.122;5.404;2024-01-30T11:45:51;102811.56;;;11.17;99.79
75414;BME280;64758;52.122;5.404;2024-01-30T11:48:19;102825.59;;;11.09;100.00
75414;BME280;64758;52.122;5.404;2024-01-30T11:50:46;102823.34;;;11.05;99.78
75414;BME280;64758;52.122;5.404;2024-01-30T11:53:13;102821.09;;;11.00;99.38
75414;BME280;64758;52.122;5.404;2024-01-30T11:55:39;102828.25;;;10.90;99.50
75414;BME280;64758;52.122;5.404;2024-01-30T11:58:06;102827.13;;;10.83;99.65
75414;BME280;64758;52.122;5.404;2024-01-30T12:00:33;102823.47;;;10.84;99.93
75414;BME280;64758;52.122;5.404;2024-01-30T12:03:01;102822.22;;;10.88;99.38
75414;BME280;64758;52.122;5.404;2024-01-30T12:05:28;102809.34;;;10.84;99.39
75414;BME280;64758;52.122;5.404;2024-01-30T12:07:55;102840.53;;;10.82;99.53
75414;BME280;64758;52.122;5.404;2024-01-30T12:10:26;102837.34;;;10.78;98.62
75414;BME280;64758;52.122;5.404;2024-01-30T12:12:53;102824.03;;;10.78;98.81
75414;BME280;64758;52.122;5.404;2024-01-30T12:15:22;102833.53;;;10.71;98.73
75414;BME280;64758;52.122;5.404;2024-01-30T12:17:48;102835.47;;;10.60;98.42
75414;BME280;64758;52.122;5.404;2024-01-30T12:20:18;102825.13;;;10.57;98.69
75414;BME280;64758;52.122;5.404;2024-01-30T12:22:48;102834.06;;;10.56;99.71
75414;BME280;64758;52.122;5.404;2024-01-30T12:25:20;102836.56;;;10.48;98.79
75414;BME280;64758;52.122;5.404;2024-01-30T12:27:49;102860.47;;;10.38;98.39
75414;BME280;64758;52.122;5.404;2024-01-30T12:30:18;102859.44;;;10.20;99.59
75414;BME280;64758;52.122;5.404;2024-01-30T12:32:47;102877.28;;;10.09;100.00
75414;BME280;64758;52.122;5.404;2024-01-30T12:35:17;102884.91;;;10.03;100.00
75414;BME280;64758;52.122;5.404;2024-01-30T12:37:45;102875.78;;;9.96;100.00
75414;BME280;64758;52.122;5.404;2024-01-30T12:40:14;102878.56;;;9.94;100.00
75414;BME280;64758;52.122;5.404;2024-01-30T12:42:42;102873.19;;;9.85;100.00
75414;BME280;64758;52.122;5.404;2024-01-30T12:45:09;102886.63;;;9.83;100.00
75414;BME280;64758;52.122;5.404;2024-01-30T12:47:36;102875.56;;;9.78;100.00